sensor_id;sensor_type;location;lat;lon;timestamp;temperature;humidity
7936;DHT22;4013;49.744;8.118;2022-10-14T00:00:40;13.20;99.90
7936;DHT22;4013;49.744;8.118;2022-10-14T00:03:07;13.20;99.90
7936;DHT22;4013;49.744;8.118;2022-10-14T00:05:39;13.20;99.90
7936;DHT22;4013;49.744;8.118;2022-10-14T00:08:06;13.20;99.90
7936;DHT22;4013;49.744;8.118;2022-10-14T00:10:36;13.20;99.90
7936;DHT22;4013;49.744;8.118;2022-10-14T00:13:03;13.20;99.90
7936;DHT22;4013;49.744;8.118;2022-10-14T00:15:30;13.10;99.90
7936;DHT22;4013;49.744;8.118;2022-10-14T00:17:59;13.10;99.90
7936;DHT22;4013;49.744;8.118;2022-10-14T00:20:25;13.10;99.90
7936;DHT22;4013;49.744;8.118;2022-10-14T00:22:54;13.10;99.90
7936;DHT22;4013;49.744;8.118;2022-10-14T00:25:21;13.10;99.90
7936;DHT22;4013;49.744;8.118;2022-10-14T00:27:47;13.10;99.90
7936;DHT22;4013;49.744;8.118;2022-10-14T00:30:14;13.10;99.90
7936;DHT22;4013;49.744;8.118;2022-10-14T00:32:41;13.10;99.90
7936;DHT22;4013;49.744;8.118;2022-10-14T00:35:10;13.10;99.90
7936;DHT22;4013;49.744;8.118;2022-10-14T00:37:37;13.10;99.90
7936;DHT22;4013;49.744;8.118;2022-10-14T00:40:04;13.10;99.90
7936;DHT22;4013;49.744;8.118;2022-10-14T00:42:32;13.10;99.90
7936;DHT22;4013;49.744;8.118;2022-10-14T00:45:04;13.00;99.90
7936;DHT22;4013;49.744;8.118;2022-10-14T00:47:31;13.10;99.90
7936;DHT22;4013;49.744;8.118;2022-10-14T00:49:59;13.10;99.90
7936;DHT22;4013;49.744;8.118;2022-10-14T00:52:27;13.10;99.90
7936;DHT22;4013;49.744;8.118;2022-10-14T00:54:59;13.10;99.90
7936;DHT22;4013;49.744;8.118;2022-10-14T00:57:27;13.10;99.90
7936;DHT22;4013;49.744;8.118;2022-10-14T00:59:59;13.10;99.90
7936;DHT22;4013;49.744;8.118;2022-10-14T01:02:26;13.10;99.90
7936;DHT22;4013;49.744;8.118;2022-10-14T01:04:53;13.10;99.90
7936;DHT22;4013;49.744;8.118;2022-10-14T01:07:29;13.10;99.90
7936;DHT22;4013;49.744;8.118;2022-10-14T01:10:03;13.10;99.90
7936;DHT22;4013;49.744;8.118;2022-10-14T01:12:39;13.00;99.90
7936;DHT22;4013;49.744;8.118;2022-10-14T01:15:14;13.10;99.90
7936;DHT22;4013;49.744;8.118;2022-10-14T01:17:51;13.00;99.90
7936;DHT22;4013;49.744;8.118;2022-10-14T01:20:43;13.10;99.90
7936;DHT22;4013;49.744;8.118;2022-10-14T01:23:34;13.00;99.90
7936;DHT22;4013;49.744;8.118;2022-10-14T01:26:14;13.10;99.90
7936;DHT22;4013;49.744;8.118;2022-10-14T01:28:51;13.10;99.90
7936;DHT22;4013;49.744;8.118;2022-10-14T01:31:25;13.10;99.90
7936;DHT22;4013;49.744;8.118;2022-10-14T01:33:57;13.10;99.90
7936;DHT22;4013;49.744;8.118;2022-10-14T01:36:30;13.10;99.90
7936;DHT22;4013;49.744;8.118;2022-10-14T01:39:04;13.10;99.90
7936;DHT22;4013;49.744;8.118;2022-10-14T01:41:37;13.10;99.90
7936;DHT22;4013;49.744;8.118;2022-10-14T01:44:09;13.10;99.90
7936;DHT22;4013;49.744;8.118;2022-10-14T01:46:40;13.10;99.90
7936;DHT22;4013;49.744;8.118;2022-10-14T01:49:11;13.20;99.90
7936;DHT22;4013;49.744;8.118;2022-10-14T01:51:45;13.20;99.90
7936;DHT22;4013;49.744;8.118;2022-10-14T01:54:18;13.20;99.90
7936;DHT22;4013;49.744;8.118;2022-10-14T01:56:47;13.20;99.90
7936;DHT22;4013;49.744;8.118;2022-10-14T01:59:15;13.10;99.90
7936;DHT22;4013;49.744;8.118;2022-10-14T02:01:45;13.20;99.90
7936;DHT22;4013;49.744;8.118;2022-10-14T02:04:16;13.20;99.90
7936;DHT22;4013;49.744;8.118;2022-10-14T02:06:47;13.10;99.90
7936;DHT22;4013;49.744;8.118;2022-10-14T02:09:21;13.10;99.90
7936;DHT22;4013;49.744;8.118;2022-10-14T02:11:58;13.10;99.90
7936;DHT22;4013;49.744;8.118;2022-10-14T02:14:36;13.10;99.90
7936;DHT22;4013;49.744;8.118;2022-10-14T02:17:11;13.10;99.90
7936;DHT22;4013;49.744;8.118;2022-10-14T02:19:44;13.10;99.90
7936;DHT22;4013;49.744;8.118;2022-10-14T02:22:21;13.10;99.90
7936;DHT22;4013;49.744;8.118;2022-10-14T02:24:52;13.10;99.90
7936;DHT22;4013;49.744;8.118;2022-10-14T02:27:21;13.10;99.90
7936;DHT22;4013;49.744;8.118;2022-10-14T02:29:51;13.10;99.90
7936;DHT22;4013;49.744;8.118;2022-10-14T02:32:23;13.10;99.90
7936;DHT22;4013;49.744;8.118;2022-10-14T02:34:53;13.10;99.90
7936;DHT22;4013;49.744;8.118;2022-10-14T02:37:22;13.10;99.90
7936;DHT22;4013;49.744;8.118;2022-10-14T02:39:57;13.10;99.90
7936;DHT22;4013;49.744;8.118;2022-10-14T02:42:25;13.10;99.90
7936;DHT22;4013;49.744;8.118;2022-10-14T02:44:53;13.10;99.90
7936;DHT22;4013;49.744;8.118;2022-10-14T02:47:23;13.10;99.90
7936;DHT22;4013;49.744;8.118;2022-10-14T02:49:50;13.00;99.90
7936;DHT22;4013;49.744;8.118;2022-10-14T02:52:18;13.10;99.90
7936;DHT22;4013;49.744;8.118;2022-10-14T02:54:45;13.10;99.90
7936;DHT22;4013;49.744;8.118;2022-10-14T02:57:11;13.00;99.90
7936;DHT22;4013;49.744;8.118;2022-10-14T02:59:38;13.00;99.90
7936;DHT22;4013;49.744;8.118;2022-10-14T03:02:05;13.00;99.90
7936;DHT22;4013;49.744;8.118;2022-10-14T03:04:34;13.00;99.90
7936;DHT22;4013;49.744;8.118;2022-10-14T03:07:01;13.00;99.90
7936;DHT22;4013;49.744;8.118;2022-10-14T03:09:28;13.00;99.90
7936;DHT22;4013;49.744;8.118;2022-10-14T03:11:55;13.00;99.90
7936;DHT22;4013;49.744;8.118;2022-10-14T03:14:21;13.10;99.90
7936;DHT22;4013;49.744;8.118;2022-10-14T03:16:49;13.10;99.90
7936;DHT22;4013;49.744;8.118;2022-10-14T03:19:15;13.10;99.90
7936;DHT22;4013;49.744;8.118;2022-10-14T03:21:44;13.10;99.90
7936;DHT22;4013;49.744;8.118;2022-10-14T03:24:11;13.10;99.90
7936;DHT22;4013;49.744;8.118;2022-10-14T03:26:38;13.10;99.90
7936;DHT22;4013;49.744;8.118;2022-10-14T03:29:04;13.10;99.90
7936;DHT22;4013;49.744;8.118;2022-10-14T03:31:31;13.10;99.90
7936;DHT22;4013;49.744;8.118;2022-10-14T03:33:58;13.00;99.90
7936;DHT22;4013;49.744;8.118;2022-10-14T03:36:25;13.10;99.90
7936;DHT22;4013;49.744;8.118;2022-10-14T03:38:53;13.10;99.90
7936;DHT22;4013;49.744;8.118;2022-10-14T03:41:20;13.10;99.90
7936;DHT22;4013;49.744;8.118;2022-10-14T03:43:47;13.00;99.90
7936;DHT22;4013;49.744;8.118;2022-10-14T03:46:14;13.00;99.90
7936;DHT22;4013;49.744;8.118;2022-10-14T03:48:41;13.00;99.90
7936;DHT22;4013;49.744;8.118;2022-10-14T03:51:08;13.00;99.90
7936;DHT22;4013;49.744;8.118;2022-10-14T03:53:35;13.10;99.90
7936;DHT22;4013;49.744;8.118;2022-10-14T03:56:04;13.10;99.90
7936;DHT22;4013;49.744;8.118;2022-10-14T03:58:31;13.00;99.90
7936;DHT22;4013;49.744;8.118;2022-10-14T04:00:58;13.10;99.90
7936;DHT22;4013;49.744;8.118;2022-10-14T04:03:25;13.00;99.90
7936;DHT22;4013;49.744;8.118;2022-10-14T04:05:51;13.10;99.90
7936;DHT22;4013;49.744;8.118;2022-10-14T04:08:18;13.10;99.90
7936;DHT22;4013;49.744;8.118;2022-10-14T04:10:46;13.00;99.90
7936;DHT22;4013;49.744;8.118;2022-10-14T04:13:18;13.00;99.90
7936;DHT22;4013;49.744;8.118;2022-10-14T04:15:45;13.00;99.90
7936;DHT22;4013;49.744;8.118;2022-10-14T04:18:12;12.90;99.90
7936;DHT22;4013;49.744;8.118;2022-10-14T04:20:40;12.90;99.90
7936;DHT22;4013;49.744;8.118;2022-10-14T04:23:07;12.90;99.90
7936;DHT22;4013;49.744;8.118;2022-10-14T04:25:36;12.90;99.90
7936;DHT22;4013;49.744;8.118;2022-10-14T04:28:03;12.90;99.90
7936;DHT22;4013;49.744;8.118;2022-10-14T04:30:31;12.90;99.90
7936;DHT22;4013;49.744;8.118;2022-10-14T04:32:58;12.90;99.90
7936;DHT22;4013;49.744;8.118;2022-10-14T04:35:25;12.90;99.90
7936;DHT22;4013;49.744;8.118;2022-10-14T04:37:52;12.90;99.90
7936;DHT22;4013;49.744;8.118;2022-10-14T04:40:20;13.00;99.90
7936;DHT22;4013;49.744;8.118;2022-10-14T04:42:53;13.00;99.90
7936;DHT22;4013;49.744;8.118;2022-10-14T04:45:20;13.00;99.90
7936;DHT22;4013;49.744;8.118;2022-10-14T04:47:49;13.00;99.90
7936;DHT22;4013;49.744;8.118;2022-10-14T04:50:16;13.00;99.90
7936;DHT22;4013;49.744;8.118;2022-10-14T04:52:43;13.00;99.90
7936;DHT22;4013;49.744;8.118;2022-10-14T04:55:10;13.00;99.90
7936;DHT22;4013;49.744;8.118;2022-10-14T04:57:36;13.00;99.90
7936;DHT22;4013;49.744;8.118;2022-10-14T05:00:06;13.10;99.90
7936;DHT22;4013;49.744;8.118;2022-10-14T05:02:33;13.10;99.90
7936;DHT22;4013;49.744;8.118;2022-10-14T05:05:01;13.10;99.90
7936;DHT22;4013;49.744;8.118;2022-10-14T05:07:28;13.10;99.90
7936;DHT22;4013;49.744;8.118;2022-10-14T05:09:55;13.00;99.90
7936;DHT22;4013;49.744;8.118;2022-10-14T05:12:22;13.10;99.90
7936;DHT22;4013;49.744;8.118;2022-10-14T05:14:49;13.10;99.90
7936;DHT22;4013;49.744;8.118;2022-10-14T05:17:15;13.10;99.90
7936;DHT22;4013;49.744;8.118;2022-10-14T05:19:42;13.10;99.90
7936;DHT22;4013;49.744;8.118;2022-10-14T05:22:11;13.10;99.90
7936;DHT22;4013;49.744;8.118;2022-10-14T05:24:38;13.20;99.90
7936;DHT22;4013;49.744;8.118;2022-10-14T05:27:05;13.20;99.90
7936;DHT22;4013;49.744;8.118;2022-10-14T05:29:32;13.10;99.90
7936;DHT22;4013;49.744;8.118;2022-10-14T05:31:59;13.20;99.90
7936;DHT22;4013;49.744;8.118;2022-10-14T05:34:25;13.20;99.90
7936;DHT22;4013;49.744;8.118;2022-10-14T05:36:52;13.20;99.90
7936;DHT22;4013;49.744;8.118;2022-10-14T05:39:21;13.20;99.90
7936;DHT22;4013;49.744;8.118;2022-10-14T05:41:48;13.20;99.90
7936;DHT22;4013;49.744;8.118;2022-10-14T05:44:15;13.20;99.90
7936;DHT22;4013;49.744;8.118;2022-10-14T05:46:41;13.20;99.90
7936;DHT22;4013;49.744;8.118;2022-10-14T05:49:09;13.30;99.90
7936;DHT22;4013;49.744;8.118;2022-10-14T05:51:36;13.20;99.90
7936;DHT22;4013;49.744;8.118;2022-10-14T05:54:03;13.20;99.90
7936;DHT22;4013;49.744;8.118;2022-10-14T05:56:32;13.20;99.90
7936;DHT22;4013;49.744;8.118;2022-10-14T05:58:58;13.30;99.90
7936;DHT22;4013;49.744;8.118;2022-10-14T06:01:26;13.30;99.90
7936;DHT22;4013;49.744;8.118;2022-10-14T06:03:52;13.20;99.90
7936;DHT22;4013;49.744;8.118;2022-10-14T06:06:19;13.20;99.90
7936;DHT22;4013;49.744;8.118;2022-10-14T06:08:46;13.20;99.90
7936;DHT22;4013;49.744;8.118;2022-10-14T06:11:13;13.20;99.90
7936;DHT22;4013;49.744;8.118;2022-10-14T06:13:41;13.20;99.90
7936;DHT22;4013;49.744;8.118;2022-10-14T06:16:09;13.20;99.90
7936;DHT22;4013;49.744;8.118;2022-10-14T06:18:37;13.20;99.90
7936;DHT22;4013;49.744;8.118;2022-10-14T06:21:04;13.20;99.90
7936;DHT22;4013;49.744;8.118;2022-10-14T06:23:31;13.20;99.90
7936;DHT22;4013;49.744;8.118;2022-10-14T06:26:01;13.20;99.90
7936;DHT22;4013;49.744;8.118;2022-10-14T06:28:28;13.20;99.90
7936;DHT22;4013;49.744;8.118;2022-10-14T06:30:57;13.20;99.90
7936;DHT22;4013;49.744;8.118;2022-10-14T06:33:24;13.20;99.90
7936;DHT22;4013;49.744;8.118;2022-10-14T06:35:50;13.10;99.90
7936;DHT22;4013;49.744;8.118;2022-10-14T06:38:17;13.20;99.90
7936;DHT22;4013;49.744;8.118;2022-10-14T06:40:44;13.20;99.90
7936;DHT22;4013;49.744;8.118;2022-10-14T06:43:11;13.20;99.90
7936;DHT22;4013;49.744;8.118;2022-10-14T06:45:38;13.10;99.90
7936;DHT22;4013;49.744;8.118;2022-10-14T06:48:06;13.10;99.90
7936;DHT22;4013;49.744;8.118;2022-10-14T06:50:33;13.10;99.90
7936;DHT22;4013;49.744;8.118;2022-10-14T06:53:00;13.10;99.90
7936;DHT22;4013;49.744;8.118;2022-10-14T06:55:27;13.20;99.90
7936;DHT22;4013;49.744;8.118;2022-10-14T06:57:54;13.20;99.90
7936;DHT22;4013;49.744;8.118;2022-10-14T07:00:21;13.20;99.90
7936;DHT22;4013;49.744;8.118;2022-10-14T07:02:48;13.20;99.90
7936;DHT22;4013;49.744;8.118;2022-10-14T07:05:19;13.20;99.90
7936;DHT22;4013;49.744;8.118;2022-10-14T07:07:46;13.20;99.90
7936;DHT22;4013;49.744;8.118;2022-10-14T07:10:13;13.20;99.90
7936;DHT22;4013;49.744;8.118;2022-10-14T07:12:40;13.30;99.90
7936;DHT22;4013;49.744;8.118;2022-10-14T07:15:08;13.30;99.90
7936;DHT22;4013;49.744;8.118;2022-10-14T07:17:35;13.30;99.90
7936;DHT22;4013;49.744;8.118;2022-10-14T07:20:02;13.30;99.90
7936;DHT22;4013;49.744;8.118;2022-10-14T07:22:30;13.30;99.90
7936;DHT22;4013;49.744;8.118;2022-10-14T07:24:57;13.30;99.90
7936;DHT22;4013;49.744;8.118;2022-10-14T07:27:24;13.40;99.90
7936;DHT22;4013;49.744;8.118;2022-10-14T07:29:51;13.30;99.90
7936;DHT22;4013;49.744;8.118;2022-10-14T07:32:18;13.30;99.90
7936;DHT22;4013;49.744;8.118;2022-10-14T07:34:44;13.30;99.90
7936;DHT22;4013;49.744;8.118;2022-10-14T07:37:11;13.20;99.90
7936;DHT22;4013;49.744;8.118;2022-10-14T07:39:39;13.30;99.90
7936;DHT22;4013;49.744;8.118;2022-10-14T07:42:06;13.30;99.90
7936;DHT22;4013;49.744;8.118;2022-10-14T07:44:33;13.30;99.90
7936;DHT22;4013;49.744;8.118;2022-10-14T07:47:01;13.20;99.90
7936;DHT22;4013;49.744;8.118;2022-10-14T07:49:28;13.20;99.90
7936;DHT22;4013;49.744;8.118;2022-10-14T07:51:55;13.20;99.90
7936;DHT22;4013;49.744;8.118;2022-10-14T07:54:24;13.30;99.90
7936;DHT22;4013;49.744;8.118;2022-10-14T07:56:55;13.30;99.90
7936;DHT22;4013;49.744;8.118;2022-10-14T07:59:23;13.30;99.90
7936;DHT22;4013;49.744;8.118;2022-10-14T08:01:51;13.30;99.90
7936;DHT22;4013;49.744;8.118;2022-10-14T08:04:18;13.30;99.90
7936;DHT22;4013;49.744;8.118;2022-10-14T08:06:46;13.30;99.90
7936;DHT22;4013;49.744;8.118;2022-10-14T08:09:13;13.30;99.90
7936;DHT22;4013;49.744;8.118;2022-10-14T08:11:42;13.40;99.90
7936;DHT22;4013;49.744;8.118;2022-10-14T08:14:11;13.40;99.90
7936;DHT22;4013;49.744;8.118;2022-10-14T08:16:38;13.40;99.90
7936;DHT22;4013;49.744;8.118;2022-10-14T08:19:07;13.40;99.90
7936;DHT22;4013;49.744;8.118;2022-10-14T08:21:35;13.50;99.90
7936;DHT22;4013;49.744;8.118;2022-10-14T08:24:02;13.50;99.90
7936;DHT22;4013;49.744;8.118;2022-10-14T08:26:31;13.50;99.90
7936;DHT22;4013;49.744;8.118;2022-10-14T08:28:59;13.50;99.90
7936;DHT22;4013;49.744;8.118;2022-10-14T08:31:28;13.60;99.90
7936;DHT22;4013;49.744;8.118;2022-10-14T08:33:55;13.60;99.90
7936;DHT22;4013;49.744;8.118;2022-10-14T08:36:22;13.70;99.90
7936;DHT22;4013;49.744;8.118;2022-10-14T08:38:51;13.70;99.90
7936;DHT22;4013;49.744;8.118;2022-10-14T08:41:31;13.80;99.90
7936;DHT22;4013;49.744;8.118;2022-10-14T08:44:12;13.80;99.90
7936;DHT22;4013;49.744;8.118;2022-10-14T08:46:45;13.90;99.90
7936;DHT22;4013;49.744;8.118;2022-10-14T08:49:16;13.90;99.90
7936;DHT22;4013;49.744;8.118;2022-10-14T08:51:48;14.00;99.90
7936;DHT22;4013;49.744;8.118;2022-10-14T08:54:21;14.00;99.90
7936;DHT22;4013;49.744;8.118;2022-10-14T08:56:51;14.10;99.90
7936;DHT22;4013;49.744;8.118;2022-10-14T08:59:19;14.10;99.90
7936;DHT22;4013;49.744;8.118;2022-10-14T09:01:52;14.10;99.90
7936;DHT22;4013;49.744;8.118;2022-10-14T09:04:19;14.20;99.90
7936;DHT22;4013;49.744;8.118;2022-10-14T09:06:48;14.10;99.90
7936;DHT22;4013;49.744;8.118;2022-10-14T09:09:21;14.10;99.90
7936;DHT22;4013;49.744;8.118;2022-10-14T09:11:52;14.10;99.90
7936;DHT22;4013;49.744;8.118;2022-10-14T09:14:22;14.10;99.90
7936;DHT22;4013;49.744;8.118;2022-10-14T09:16:54;14.20;99.90
7936;DHT22;4013;49.744;8.118;2022-10-14T09:19:27;14.20;99.90
7936;DHT22;4013;49.744;8.118;2022-10-14T09:21:55;14.20;99.90
7936;DHT22;4013;49.744;8.118;2022-10-14T09:24:24;14.30;99.90
7936;DHT22;4013;49.744;8.118;2022-10-14T09:26:56;14.30;99.90
7936;DHT22;4013;49.744;8.118;2022-10-14T09:29:25;14.30;99.90
7936;DHT22;4013;49.744;8.118;2022-10-14T09:31:56;14.30;99.90
7936;DHT22;4013;49.744;8.118;2022-10-14T09:34:29;14.40;99.90
7936;DHT22;4013;49.744;8.118;2022-10-14T09:36:59;14.50;99.90
7936;DHT22;4013;49.744;8.118;2022-10-14T09:39:32;14.50;99.90
7936;DHT22;4013;49.744;8.118;2022-10-14T09:42:02;14.50;99.90
7936;DHT22;4013;49.744;8.118;2022-10-14T09:44:28;14.60;99.90
7936;DHT22;4013;49.744;8.118;2022-10-14T09:46:58;14.50;99.90
7936;DHT22;4013;49.744;8.118;2022-10-14T09:49:39;14.50;99.90
7936;DHT22;4013;49.744;8.118;2022-10-14T09:52:07;14.50;99.90
7936;DHT22;4013;49.744;8.118;2022-10-14T09:54:52;14.50;99.90
7936;DHT22;4013;49.744;8.118;2022-10-14T09:57:19;14.60;99.90
7936;DHT22;4013;49.744;8.118;2022-10-14T09:59:52;14.50;99.90
7936;DHT22;4013;49.744;8.118;2022-10-14T10:02:25;14.50;99.90
7936;DHT22;4013;49.744;8.118;2022-10-14T10:05:10;14.60;99.90
7936;DHT22;4013;49.744;8.118;2022-10-14T10:07:37;14.60;99.90
7936;DHT22;4013;49.744;8.118;2022-10-14T10:10:17;14.50;99.90
7936;DHT22;4013;49.744;8.118;2022-10-14T10:12:44;14.50;99.90
7936;DHT22;4013;49.744;8.118;2022-10-14T10:15:18;14.50;99.90
7936;DHT22;4013;49.744;8.118;2022-10-14T10:17:47;14.50;99.90
7936;DHT22;4013;49.744;8.118;2022-10-14T10:20:21;14.50;99.90
7936;DHT22;4013;49.744;8.118;2022-10-14T10:22:53;14.50;99.90
7936;DHT22;4013;49.744;8.118;2022-10-14T10:25:23;14.50;99.90
7936;DHT22;4013;49.744;8.118;2022-10-14T10:27:56;14.50;99.90
7936;DHT22;4013;49.744;8.118;2022-10-14T10:30:26;14.50;99.90
7936;DHT22;4013;49.744;8.118;2022-10-14T10:33:07;14.50;99.90
7936;DHT22;4013;49.744;8.118;2022-10-14T10:35:54;14.50;99.90
7936;DHT22;4013;49.744;8.118;2022-10-14T10:38:28;14.50;99.90
7936;DHT22;4013;49.744;8.118;2022-10-14T10:41:05;14.50;99.90
7936;DHT22;4013;49.744;8.118;2022-10-14T10:43:56;14.50;99.90
7936;DHT22;4013;49.744;8.118;2022-10-14T10:46:48;14.60;99.90
7936;DHT22;4013;49.744;8.118;2022-10-14T10:49:46;14.60;99.90
7936;DHT22;4013;49.744;8.118;2022-10-14T10:52:24;14.60;99.90
7936;DHT22;4013;49.744;8.118;2022-10-14T10:54:58;14.60;99.90
7936;DHT22;4013;49.744;8.118;2022-10-14T10:57:42;14.60;99.90
7936;DHT22;4013;49.744;8.118;2022-10-14T11:00:13;14.60;99.90
7936;DHT22;4013;49.744;8.118;2022-10-14T11:03:01;14.60;99.90
7936;DHT22;4013;49.744;8.118;2022-10-14T11:05:42;14.60;99.90
7936;DHT22;4013;49.744;8.118;2022-10-14T11:08:21;14.60;99.90
7936;DHT22;4013;49.744;8.118;2022-10-14T11:11:17;14.60;99.90
7936;DHT22;4013;49.744;8.118;2022-10-14T11:14:10;14.60;99.90
7936;DHT22;4013;49.744;8.118;2022-10-14T11:16:44;14.60;99.90
7936;DHT22;4013;49.744;8.118;2022-10-14T11:19:17;14.60;99.90
7936;DHT22;4013;49.744;8.118;2022-10-14T11:21:51;14.60;99.90
7936;DHT22;4013;49.744;8.118;2022-10-14T11:24:25;14.60;99.90
7936;DHT22;4013;49.744;8.118;2022-10-14T11:27:07;14.60;99.90
7936;DHT22;4013;49.744;8.118;2022-10-14T11:29:49;14.60;99.90
7936;DHT22;4013;49.744;8.118;2022-10-14T11:32:21;14.60;99.90
7936;DHT22;4013;49.744;8.118;2022-10-14T11:35:01;14.60;99.90
7936;DHT22;4013;49.744;8.118;2022-10-14T11:37:41;14.60;99.90
7936;DHT22;4013;49.744;8.118;2022-10-14T11:40:17;14.60;99.90
7936;DHT22;4013;49.744;8.118;2022-10-14T11:42:54;14.60;99.90
7936;DHT22;4013;49.744;8.118;2022-10-14T11:45:48;14.60;99.90
7936;DHT22;4013;49.744;8.118;2022-10-14T11:48:24;14.60;99.90
7936;DHT22;4013;49.744;8.118;2022-10-14T11:50:56;14.60;99.90
7936;DHT22;4013;49.744;8.118;2022-10-14T11:53:34;14.60;99.90
7936;DHT22;4013;49.744;8.118;2022-10-14T11:56:10;14.60;99.90
7936;DHT22;4013;49.744;8.118;2022-10-14T11:58:41;14.60;99.90
7936;DHT22;4013;49.744;8.118;2022-10-14T12:01:11;14.70;99.90
7936;DHT22;4013;49.744;8.118;2022-10-14T12:03:47;14.70;99.90
7936;DHT22;4013;49.744;8.118;2022-10-14T12:06:19;14.70;99.90
7936;DHT22;4013;49.744;8.118;2022-10-14T12:08:52;14.70;99.90
7936;DHT22;4013;49.744;8.118;2022-10-14T12:11:27;14.70;99.90
7936;DHT22;4013;49.744;8.118;2022-10-14T12:14:02;14.80;99.90
7936;DHT22;4013;49.744;8.118;2022-10-14T12:16:30;14.80;99.90
7936;DHT22;4013;49.744;8.118;2022-10-14T12:18:58;14.80;99.90
7936;DHT22;4013;49.744;8.118;2022-10-14T12:21:30;14.80;99.90
7936;DHT22;4013;49.744;8.118;2022-10-14T12:24:03;14.80;99.90
7936;DHT22;4013;49.744;8.118;2022-10-14T12:26:46;14.80;99.90
7936;DHT22;4013;49.744;8.118;2022-10-14T12:29:17;14.80;99.90
7936;DHT22;4013;49.744;8.118;2022-10-14T12:31:49;14.80;99.90
7936;DHT22;4013;49.744;8.118;2022-10-14T12:34:30;14.80;99.90
7936;DHT22;4013;49.744;8.118;2022-10-14T12:36:59;14.90;99.90
7936;DHT22;4013;49.744;8.118;2022-10-14T12:39:41;14.90;99.90
7936;DHT22;4013;49.744;8.118;2022-10-14T12:42:10;14.90;99.90
7936;DHT22;4013;49.744;8.118;2022-10-14T12:44:44;14.90;99.90
7936;DHT22;4013;49.744;8.118;2022-10-14T12:47:18;14.90;99.90
7936;DHT22;4013;49.744;8.118;2022-10-14T12:49:48;14.90;99.90
7936;DHT22;4013;49.744;8.118;2022-10-14T12:52:19;14.90;99.90
7936;DHT22;4013;49.744;8.118;2022-10-14T12:54:49;14.90;99.90
7936;DHT22;4013;49.744;8.118;2022-10-14T12:57:25;14.90;99.90
7936;DHT22;4013;49.744;8.118;2022-10-14T12:59:53;14.90;99.90
7936;DHT22;4013;49.744;8.118;2022-10-14T13:02:28;14.90;99.90
7936;DHT22;4013;49.744;8.118;2022-10-14T13:04:59;14.90;99.90
7936;DHT22;4013;49.744;8.118;2022-10-14T13:07:41;14.90;99.90
7936;DHT22;4013;49.744;8.118;2022-10-14T13:17:03;14.90;99.90
7936;DHT22;4013;49.744;8.118;2022-10-14T13:19:49;14.90;99.90
7936;DHT22;4013;49.744;8.118;2022-10-14T13:22:38;14.90;99.90
7936;DHT22;4013;49.744;8.118;2022-10-14T13:25:12;14.90;99.90
7936;DHT22;4013;49.744;8.118;2022-10-14T13:27:46;14.90;99.90
7936;DHT22;4013;49.744;8.118;2022-10-14T13:30:18;14.90;99.90
7936;DHT22;4013;49.744;8.118;2022-10-14T13:32:52;14.90;99.90
7936;DHT22;4013;49.744;8.118;2022-10-14T13:35:26;14.90;99.90
7936;DHT22;4013;49.744;8.118;2022-10-14T13:37:57;14.90;99.90
7936;DHT22;4013;49.744;8.118;2022-10-14T13:40:27;15.00;99.90
7936;DHT22;4013;49.744;8.118;2022-10-14T13:42:57;15.00;99.90
7936;DHT22;4013;49.744;8.118;2022-10-14T13:45:30;15.10;99.90
7936;DHT22;4013;49.744;8.118;2022-10-14T13:47:59;15.10;99.90
7936;DHT22;4013;49.744;8.118;2022-10-14T13:50:31;15.20;99.90
7936;DHT22;4013;49.744;8.118;2022-10-14T13:53:02;15.20;99.90
7936;DHT22;4013;49.744;8.118;2022-10-14T13:55:29;15.20;99.90
7936;DHT22;4013;49.744;8.118;2022-10-14T13:58:01;15.30;99.90
7936;DHT22;4013;49.744;8.118;2022-10-14T14:00:30;15.30;99.90
7936;DHT22;4013;49.744;8.118;2022-10-14T14:02:58;15.40;99.90
7936;DHT22;4013;49.744;8.118;2022-10-14T14:05:28;15.40;99.90
7936;DHT22;4013;49.744;8.118;2022-10-14T14:07:58;15.40;99.90
7936;DHT22;4013;49.744;8.118;2022-10-14T14:10:24;15.40;99.90
7936;DHT22;4013;49.744;8.118;2022-10-14T14:12:51;15.40;99.90
7936;DHT22;4013;49.744;8.118;2022-10-14T14:15:22;15.40;99.90
7936;DHT22;4013;49.744;8.118;2022-10-14T14:17:49;15.40;99.90
7936;DHT22;4013;49.744;8.118;2022-10-14T14:20:20;15.40;99.90
7936;DHT22;4013;49.744;8.118;2022-10-14T14:22:47;15.50;99.90
7936;DHT22;4013;49.744;8.118;2022-10-14T14:25:21;15.40;99.90
7936;DHT22;4013;49.744;8.118;2022-10-14T14:27:50;15.50;99.90
7936;DHT22;4013;49.744;8.118;2022-10-14T14:30:21;15.50;99.90
7936;DHT22;4013;49.744;8.118;2022-10-14T14:32:48;15.50;99.90
7936;DHT22;4013;49.744;8.118;2022-10-14T14:35:19;15.40;99.90
7936;DHT22;4013;49.744;8.118;2022-10-14T14:37:46;15.50;99.90
7936;DHT22;4013;49.744;8.118;2022-10-14T14:40:19;15.40;99.90
7936;DHT22;4013;49.744;8.118;2022-10-14T14:42:48;15.50;99.90
7936;DHT22;4013;49.744;8.118;2022-10-14T14:45:18;15.50;99.90
7936;DHT22;4013;49.744;8.118;2022-10-14T14:47:46;15.40;99.90
7936;DHT22;4013;49.744;8.118;2022-10-14T14:50:16;15.50;99.90
7936;DHT22;4013;49.744;8.118;2022-10-14T14:52:47;15.50;99.90
7936;DHT22;4013;49.744;8.118;2022-10-14T14:55:34;15.50;99.90
7936;DHT22;4013;49.744;8.118;2022-10-14T14:58:03;15.50;99.90
7936;DHT22;4013;49.744;8.118;2022-10-14T15:00:31;15.40;99.90
7936;DHT22;4013;49.744;8.118;2022-10-14T15:03:00;15.50;99.90
7936;DHT22;4013;49.744;8.118;2022-10-14T15:05:27;15.50;99.90
7936;DHT22;4013;49.744;8.118;2022-10-14T15:07:56;15.50;99.90
7936;DHT22;4013;49.744;8.118;2022-10-14T15:10:25;15.50;99.90
7936;DHT22;4013;49.744;8.118;2022-10-14T15:12:55;15.50;99.90
7936;DHT22;4013;49.744;8.118;2022-10-14T15:15:26;15.50;99.90
7936;DHT22;4013;49.744;8.118;2022-10-14T15:18:11;15.50;99.90
7936;DHT22;4013;49.744;8.118;2022-10-14T15:20:39;15.40;99.90
7936;DHT22;4013;49.744;8.118;2022-10-14T15:23:36;15.40;99.90
7936;DHT22;4013;49.744;8.118;2022-10-14T15:26:03;15.40;99.90
7936;DHT22;4013;49.744;8.118;2022-10-14T15:28:31;15.40;99.90
7936;DHT22;4013;49.744;8.118;2022-10-14T15:30:58;15.40;99.90
7936;DHT22;4013;49.744;8.118;2022-10-14T15:33:26;15.40;99.90
7936;DHT22;4013;49.744;8.118;2022-10-14T15:35:55;15.40;99.90
7936;DHT22;4013;49.744;8.118;2022-10-14T15:38:22;15.30;99.90
7936;DHT22;4013;49.744;8.118;2022-10-14T15:40:51;15.40;99.90
7936;DHT22;4013;49.744;8.118;2022-10-14T15:43:19;15.40;99.90
7936;DHT22;4013;49.744;8.118;2022-10-14T15:45:48;15.40;99.90
7936;DHT22;4013;49.744;8.118;2022-10-14T15:48:37;15.30;99.90
7936;DHT22;4013;49.744;8.118;2022-10-14T15:51:04;15.40;99.90
7936;DHT22;4013;49.744;8.118;2022-10-14T15:53:31;15.30;99.90
7936;DHT22;4013;49.744;8.118;2022-10-14T15:55:59;15.40;99.90
7936;DHT22;4013;49.744;8.118;2022-10-14T15:58:26;15.30;99.90
7936;DHT22;4013;49.744;8.118;2022-10-14T16:00:53;15.30;99.90
7936;DHT22;4013;49.744;8.118;2022-10-14T16:03:20;15.40;99.90
7936;DHT22;4013;49.744;8.118;2022-10-14T16:05:47;15.40;99.90
7936;DHT22;4013;49.744;8.118;2022-10-14T16:08:14;15.40;99.90
7936;DHT22;4013;49.744;8.118;2022-10-14T16:10:42;15.40;99.90
7936;DHT22;4013;49.744;8.118;2022-10-14T16:13:11;15.40;99.90
7936;DHT22;4013;49.744;8.118;2022-10-14T16:15:43;15.30;99.90
7936;DHT22;4013;49.744;8.118;2022-10-14T16:18:12;15.30;99.90
7936;DHT22;4013;49.744;8.118;2022-10-14T16:20:39;15.40;99.90
7936;DHT22;4013;49.744;8.118;2022-10-14T16:23:06;15.40;99.90
7936;DHT22;4013;49.744;8.118;2022-10-14T16:25:35;15.30;99.90
7936;DHT22;4013;49.744;8.118;2022-10-14T16:28:04;15.30;99.90
7936;DHT22;4013;49.744;8.118;2022-10-14T16:30:34;15.30;99.90